sensor_id;sensor_type;location;lat;lon;timestamp;temperature;humidity
46490;DHT22;32204;49.160;8.580;2023-10-31T00:00:30;13.50;99.90
46490;DHT22;32204;49.160;8.580;2023-10-31T00:02:55;13.50;99.90
46490;DHT22;32204;49.160;8.580;2023-10-31T00:05:21;13.50;99.90
46490;DHT22;32204;49.160;8.580;2023-10-31T00:07:46;13.40;99.90
46490;DHT22;32204;49.160;8.580;2023-10-31T00:10:12;13.50;99.90
46490;DHT22;32204;49.160;8.580;2023-10-31T00:12:37;13.50;99.90
46490;DHT22;32204;49.160;8.580;2023-10-31T00:15:04;13.50;99.90
46490;DHT22;32204;49.160;8.580;2023-10-31T00:17:29;13.60;99.90
46490;DHT22;32204;49.160;8.580;2023-10-31T00:19:55;13.60;99.90
46490;DHT22;32204;49.160;8.580;2023-10-31T00:22:20;13.50;99.90
46490;DHT22;32204;49.160;8.580;2023-10-31T00:24:46;13.40;99.90
46490;DHT22;32204;49.160;8.580;2023-10-31T00:27:11;13.30;99.90
46490;DHT22;32204;49.160;8.580;2023-10-31T00:29:37;13.20;99.90
46490;DHT22;32204;49.160;8.580;2023-10-31T00:32:03;13.10;99.90
46490;DHT22;32204;49.160;8.580;2023-10-31T00:34:28;13.00;99.90
46490;DHT22;32204;49.160;8.580;2023-10-31T00:36:54;12.90;99.90
46490;DHT22;32204;49.160;8.580;2023-10-31T00:39:19;12.90;99.90
46490;DHT22;32204;49.160;8.580;2023-10-31T00:41:44;12.90;99.90
46490;DHT22;32204;49.160;8.580;2023-10-31T00:44:11;12.90;99.90
46490;DHT22;32204;49.160;8.580;2023-10-31T00:46:37;12.90;99.90
46490;DHT22;32204;49.160;8.580;2023-10-31T00:49:02;12.80;99.90
46490;DHT22;32204;49.160;8.580;2023-10-31T00:51:28;12.80;99.90
46490;DHT22;32204;49.160;8.580;2023-10-31T00:53:53;12.80;99.90
46490;DHT22;32204;49.160;8.580;2023-10-31T00:56:19;12.80;99.90
46490;DHT22;32204;49.160;8.580;2023-10-31T00:58:45;12.80;99.90
46490;DHT22;32204;49.160;8.580;2023-10-31T01:01:10;12.70;99.90
46490;DHT22;32204;49.160;8.580;2023-10-31T01:03:36;12.70;99.90
46490;DHT22;32204;49.160;8.580;2023-10-31T01:06:02;12.70;99.90
46490;DHT22;32204;49.160;8.580;2023-10-31T01:08:28;12.60;99.90
46490;DHT22;32204;49.160;8.580;2023-10-31T01:10:55;12.60;99.90
46490;DHT22;32204;49.160;8.580;2023-10-31T01:13:20;12.60;99.90
46490;DHT22;32204;49.160;8.580;2023-10-31T01:15:46;12.60;99.90
46490;DHT22;32204;49.160;8.580;2023-10-31T01:18:11;12.60;99.90
46490;DHT22;32204;49.160;8.580;2023-10-31T01:20:37;12.60;99.90
46490;DHT22;32204;49.160;8.580;2023-10-31T01:23:03;12.60;99.90
46490;DHT22;32204;49.160;8.580;2023-10-31T01:25:29;12.60;99.90
46490;DHT22;32204;49.160;8.580;2023-10-31T01:27:54;12.50;99.90
46490;DHT22;32204;49.160;8.580;2023-10-31T01:30:20;12.50;99.90
46490;DHT22;32204;49.160;8.580;2023-10-31T01:32:45;12.40;99.90
46490;DHT22;32204;49.160;8.580;2023-10-31T01:35:11;12.40;99.90
46490;DHT22;32204;49.160;8.580;2023-10-31T01:37:36;12.40;99.90
46490;DHT22;32204;49.160;8.580;2023-10-31T01:40:02;12.50;99.90
46490;DHT22;32204;49.160;8.580;2023-10-31T01:42:29;12.40;99.90
46490;DHT22;32204;49.160;8.580;2023-10-31T01:44:54;12.40;99.90
46490;DHT22;32204;49.160;8.580;2023-10-31T01:47:20;12.30;99.90
46490;DHT22;32204;49.160;8.580;2023-10-31T01:49:46;12.30;99.90
46490;DHT22;32204;49.160;8.580;2023-10-31T01:52:12;12.30;99.90
46490;DHT22;32204;49.160;8.580;2023-10-31T01:54:37;12.30;99.90
46490;DHT22;32204;49.160;8.580;2023-10-31T01:57:03;12.30;99.90
46490;DHT22;32204;49.160;8.580;2023-10-31T01:59:30;12.30;99.90
46490;DHT22;32204;49.160;8.580;2023-10-31T02:01:55;12.20;99.90
46490;DHT22;32204;49.160;8.580;2023-10-31T02:04:23;12.20;99.90
46490;DHT22;32204;49.160;8.580;2023-10-31T02:06:48;12.20;99.90
46490;DHT22;32204;49.160;8.580;2023-10-31T02:09:14;12.20;99.90
46490;DHT22;32204;49.160;8.580;2023-10-31T02:11:39;12.20;99.90
46490;DHT22;32204;49.160;8.580;2023-10-31T02:14:05;12.20;99.90
46490;DHT22;32204;49.160;8.580;2023-10-31T02:16:30;12.20;99.90
46490;DHT22;32204;49.160;8.580;2023-10-31T02:18:56;12.20;99.90
46490;DHT22;32204;49.160;8.580;2023-10-31T02:21:21;12.20;99.90
46490;DHT22;32204;49.160;8.580;2023-10-31T02:23:57;12.10;99.90
46490;DHT22;32204;49.160;8.580;2023-10-31T02:26:22;12.00;99.90
46490;DHT22;32204;49.160;8.580;2023-10-31T02:28:48;11.90;99.90
46490;DHT22;32204;49.160;8.580;2023-10-31T02:31:13;12.00;99.90
46490;DHT22;32204;49.160;8.580;2023-10-31T02:33:39;11.90;99.90
46490;DHT22;32204;49.160;8.580;2023-10-31T02:36:04;11.90;99.90
46490;DHT22;32204;49.160;8.580;2023-10-31T02:38:30;11.90;99.90
46490;DHT22;32204;49.160;8.580;2023-10-31T02:40:55;11.90;99.90
46490;DHT22;32204;49.160;8.580;2023-10-31T02:43:21;11.80;99.90
46490;DHT22;32204;49.160;8.580;2023-10-31T02:45:46;11.80;99.90
46490;DHT22;32204;49.160;8.580;2023-10-31T02:48:12;11.90;99.90
46490;DHT22;32204;49.160;8.580;2023-10-31T02:50:37;11.90;99.90
46490;DHT22;32204;49.160;8.580;2023-10-31T02:53:03;11.90;99.90
46490;DHT22;32204;49.160;8.580;2023-10-31T02:55:28;12.00;99.90
46490;DHT22;32204;49.160;8.580;2023-10-31T02:57:54;11.90;99.90
46490;DHT22;32204;49.160;8.580;2023-10-31T03:00:19;11.90;99.90
46490;DHT22;32204;49.160;8.580;2023-10-31T03:02:45;11.90;99.90
46490;DHT22;32204;49.160;8.580;2023-10-31T03:05:11;11.90;99.90
46490;DHT22;32204;49.160;8.580;2023-10-31T03:07:37;11.90;99.90
46490;DHT22;32204;49.160;8.580;2023-10-31T03:10:02;11.90;99.90
46490;DHT22;32204;49.160;8.580;2023-10-31T03:12:28;11.90;99.90
46490;DHT22;32204;49.160;8.580;2023-10-31T03:14:53;12.00;99.90
46490;DHT22;32204;49.160;8.580;2023-10-31T03:17:19;12.00;99.90
46490;DHT22;32204;49.160;8.580;2023-10-31T03:19:44;11.90;99.90
46490;DHT22;32204;49.160;8.580;2023-10-31T03:22:10;11.90;99.90
46490;DHT22;32204;49.160;8.580;2023-10-31T03:24:36;11.90;99.90
46490;DHT22;32204;49.160;8.580;2023-10-31T03:27:01;11.90;99.90
46490;DHT22;32204;49.160;8.580;2023-10-31T03:29:27;11.90;99.90
46490;DHT22;32204;49.160;8.580;2023-10-31T03:31:52;11.90;99.90
46490;DHT22;32204;49.160;8.580;2023-10-31T03:34:18;11.90;99.90
46490;DHT22;32204;49.160;8.580;2023-10-31T03:36:43;11.80;99.90
46490;DHT22;32204;49.160;8.580;2023-10-31T03:39:09;11.80;99.90
46490;DHT22;32204;49.160;8.580;2023-10-31T03:41:35;11.80;99.90
46490;DHT22;32204;49.160;8.580;2023-10-31T03:44:00;11.80;99.90
46490;DHT22;32204;49.160;8.580;2023-10-31T03:46:26;11.80;99.90
46490;DHT22;32204;49.160;8.580;2023-10-31T03:48:52;11.80;99.90
46490;DHT22;32204;49.160;8.580;2023-10-31T03:51:17;11.80;99.90
46490;DHT22;32204;49.160;8.580;2023-10-31T03:53:43;11.80;99.90
46490;DHT22;32204;49.160;8.580;2023-10-31T03:56:08;11.80;99.90
46490;DHT22;32204;49.160;8.580;2023-10-31T03:58:34;11.80;99.90
46490;DHT22;32204;49.160;8.580;2023-10-31T04:00:59;11.90;99.90
46490;DHT22;32204;49.160;8.580;2023-10-31T04:03:25;11.90;99.90
46490;DHT22;32204;49.160;8.580;2023-10-31T04:05:50;12.00;99.90
46490;DHT22;32204;49.160;8.580;2023-10-31T04:08:15;12.00;99.90
46490;DHT22;32204;49.160;8.580;2023-10-31T04:10:41;12.10;99.90
46490;DHT22;32204;49.160;8.580;2023-10-31T04:13:06;12.10;1.00
46490;DHT22;32204;49.160;8.580;2023-10-31T04:15:32;12.20;99.90
46490;DHT22;32204;49.160;8.580;2023-10-31T04:18:00;12.20;99.90
46490;DHT22;32204;49.160;8.580;2023-10-31T04:20:25;12.10;1.00
46490;DHT22;32204;49.160;8.580;2023-10-31T04:22:51;12.10;1.00
46490;DHT22;32204;49.160;8.580;2023-10-31T04:25:16;12.10;1.00
46490;DHT22;32204;49.160;8.580;2023-10-31T04:27:42;12.10;99.90
46490;DHT22;32204;49.160;8.580;2023-10-31T04:30:07;12.10;99.90
46490;DHT22;32204;49.160;8.580;2023-10-31T04:32:33;12.10;99.90
46490;DHT22;32204;49.160;8.580;2023-10-31T04:34:58;12.20;99.90
46490;DHT22;32204;49.160;8.580;2023-10-31T04:37:24;12.20;99.30
46490;DHT22;32204;49.160;8.580;2023-10-31T04:39:50;12.20;99.90
46490;DHT22;32204;49.160;8.580;2023-10-31T04:42:15;12.20;86.20
46490;DHT22;32204;49.160;8.580;2023-10-31T04:44:41;12.20;99.90
46490;DHT22;32204;49.160;8.580;2023-10-31T04:47:06;12.20;1.00
46490;DHT22;32204;49.160;8.580;2023-10-31T04:49:34;12.20;99.90
46490;DHT22;32204;49.160;8.580;2023-10-31T04:51:59;12.20;99.90
46490;DHT22;32204;49.160;8.580;2023-10-31T04:54:25;12.20;98.30
46490;DHT22;32204;49.160;8.580;2023-10-31T04:56:50;12.20;99.90
46490;DHT22;32204;49.160;8.580;2023-10-31T04:59:16;12.20;1.00
46490;DHT22;32204;49.160;8.580;2023-10-31T05:01:41;12.20;99.90
46490;DHT22;32204;49.160;8.580;2023-10-31T05:04:13;12.20;54.80
46490;DHT22;32204;49.160;8.580;2023-10-31T05:06:38;12.20;1.00
46490;DHT22;32204;49.160;8.580;2023-10-31T05:09:03;12.20;99.90
46490;DHT22;32204;49.160;8.580;2023-10-31T05:11:30;12.30;1.00
46490;DHT22;32204;49.160;8.580;2023-10-31T05:13:55;12.20;99.90
46490;DHT22;32204;49.160;8.580;2023-10-31T05:16:21;12.20;99.90
46490;DHT22;32204;49.160;8.580;2023-10-31T05:18:46;12.30;99.90
46490;DHT22;32204;49.160;8.580;2023-10-31T05:21:12;12.20;1.00
46490;DHT22;32204;49.160;8.580;2023-10-31T05:23:37;12.30;1.00
46490;DHT22;32204;49.160;8.580;2023-10-31T05:26:04;12.20;99.90
46490;DHT22;32204;49.160;8.580;2023-10-31T05:28:30;12.30;4.40
46490;DHT22;32204;49.160;8.580;2023-10-31T05:30:55;12.30;1.00
46490;DHT22;32204;49.160;8.580;2023-10-31T05:33:21;12.20;99.90
46490;DHT22;32204;49.160;8.580;2023-10-31T05:35:48;12.20;1.00
46490;DHT22;32204;49.160;8.580;2023-10-31T05:38:14;12.20;32.80
46490;DHT22;32204;49.160;8.580;2023-10-31T05:40:39;12.20;99.90
46490;DHT22;32204;49.160;8.580;2023-10-31T05:43:04;12.10;1.00
46490;DHT22;32204;49.160;8.580;2023-10-31T05:45:30;12.00;88.50
46490;DHT22;32204;49.160;8.580;2023-10-31T05:47:56;12.00;99.90
46490;DHT22;32204;49.160;8.580;2023-10-31T05:50:22;12.10;99.90
46490;DHT22;32204;49.160;8.580;2023-10-31T05:52:47;12.00;99.90
46490;DHT22;32204;49.160;8.580;2023-10-31T05:55:13;12.10;99.90
46490;DHT22;32204;49.160;8.580;2023-10-31T05:57:38;12.00;99.90
46490;DHT22;32204;49.160;8.580;2023-10-31T06:00:05;12.00;99.90
46490;DHT22;32204;49.160;8.580;2023-10-31T06:02:30;12.00;99.90
46490;DHT22;32204;49.160;8.580;2023-10-31T06:04:56;12.00;1.00
46490;DHT22;32204;49.160;8.580;2023-10-31T06:07:22;12.00;1.00
46490;DHT22;32204;49.160;8.580;2023-10-31T06:09:47;12.00;1.00
46490;DHT22;32204;49.160;8.580;2023-10-31T06:12:13;12.00;1.00
46490;DHT22;32204;49.160;8.580;2023-10-31T06:14:38;12.00;1.00
46490;DHT22;32204;49.160;8.580;2023-10-31T06:17:04;12.00;99.90
46490;DHT22;32204;49.160;8.580;2023-10-31T06:19:32;12.00;1.00
46490;DHT22;32204;49.160;8.580;2023-10-31T06:21:58;12.00;99.90
46490;DHT22;32204;49.160;8.580;2023-10-31T06:24:23;12.00;99.90
46490;DHT22;32204;49.160;8.580;2023-10-31T06:26:49;12.00;99.90
46490;DHT22;32204;49.160;8.580;2023-10-31T06:29:14;12.00;99.90
46490;DHT22;32204;49.160;8.580;2023-10-31T06:31:40;12.00;99.90
46490;DHT22;32204;49.160;8.580;2023-10-31T06:34:06;11.90;1.00
46490;DHT22;32204;49.160;8.580;2023-10-31T06:36:31;12.00;99.90
46490;DHT22;32204;49.160;8.580;2023-10-31T06:38:57;11.90;99.90
46490;DHT22;32204;49.160;8.580;2023-10-31T06:41:23;11.90;99.90
46490;DHT22;32204;49.160;8.580;2023-10-31T06:43:49;11.80;99.90
46490;DHT22;32204;49.160;8.580;2023-10-31T06:46:14;11.90;99.90
46490;DHT22;32204;49.160;8.580;2023-10-31T06:48:40;11.80;99.90
46490;DHT22;32204;49.160;8.580;2023-10-31T06:51:06;11.90;1.00
46490;DHT22;32204;49.160;8.580;2023-10-31T06:53:31;11.80;99.90
46490;DHT22;32204;49.160;8.580;2023-10-31T06:55:56;11.80;1.00
46490;DHT22;32204;49.160;8.580;2023-10-31T06:58:22;11.80;1.00
46490;DHT22;32204;49.160;8.580;2023-10-31T07:00:47;11.80;1.00
46490;DHT22;32204;49.160;8.580;2023-10-31T07:03:13;11.80;24.20
46490;DHT22;32204;49.160;8.580;2023-10-31T07:05:41;11.70;99.90
46490;DHT22;32204;49.160;8.580;2023-10-31T07:08:06;11.80;99.90
46490;DHT22;32204;49.160;8.580;2023-10-31T07:10:32;11.80;99.90
46490;DHT22;32204;49.160;8.580;2023-10-31T07:12:58;11.80;99.90
46490;DHT22;32204;49.160;8.580;2023-10-31T07:15:27;11.80;62.20
46490;DHT22;32204;49.160;8.580;2023-10-31T07:17:53;11.80;1.00
46490;DHT22;32204;49.160;8.580;2023-10-31T07:20:18;11.90;1.00
46490;DHT22;32204;49.160;8.580;2023-10-31T07:22:44;11.90;1.00
46490;DHT22;32204;49.160;8.580;2023-10-31T07:25:09;11.90;1.00
46490;DHT22;32204;49.160;8.580;2023-10-31T07:27:35;12.00;1.00
46490;DHT22;32204;49.160;8.580;2023-10-31T07:30:02;12.00;1.00
46490;DHT22;32204;49.160;8.580;2023-10-31T07:32:27;12.00;99.90
46490;DHT22;32204;49.160;8.580;2023-10-31T07:34:53;12.00;1.00
46490;DHT22;32204;49.160;8.580;2023-10-31T07:37:18;12.00;99.90
46490;DHT22;32204;49.160;8.580;2023-10-31T07:39:44;12.00;1.00
46490;DHT22;32204;49.160;8.580;2023-10-31T07:42:09;12.10;1.00
46490;DHT22;32204;49.160;8.580;2023-10-31T07:44:35;12.10;1.00
46490;DHT22;32204;49.160;8.580;2023-10-31T07:47:01;12.10;1.00
46490;DHT22;32204;49.160;8.580;2023-10-31T07:49:27;12.30;1.00
46490;DHT22;32204;49.160;8.580;2023-10-31T07:51:52;12.30;99.90
46490;DHT22;32204;49.160;8.580;2023-10-31T07:54:17;12.40;99.90
46490;DHT22;32204;49.160;8.580;2023-10-31T07:56:44;12.40;99.90
46490;DHT22;32204;49.160;8.580;2023-10-31T07:59:09;12.40;99.90
46490;DHT22;32204;49.160;8.580;2023-10-31T08:01:35;12.40;99.70
46490;DHT22;32204;49.160;8.580;2023-10-31T08:04:00;12.50;99.90
46490;DHT22;32204;49.160;8.580;2023-10-31T08:06:26;12.50;99.90
46490;DHT22;32204;49.160;8.580;2023-10-31T08:08:51;12.60;59.10
46490;DHT22;32204;49.160;8.580;2023-10-31T08:11:17;12.70;38.20
46490;DHT22;32204;49.160;8.580;2023-10-31T08:13:43;12.60;99.90
46490;DHT22;32204;49.160;8.580;2023-10-31T08:16:09;12.70;99.90
46490;DHT22;32204;49.160;8.580;2023-10-31T08:18:34;12.70;42.80
46490;DHT22;32204;49.160;8.580;2023-10-31T08:21:00;12.80;99.90
46490;DHT22;32204;49.160;8.580;2023-10-31T08:23:25;12.90;99.90
46490;DHT22;32204;49.160;8.580;2023-10-31T08:25:51;12.90;99.90
46490;DHT22;32204;49.160;8.580;2023-10-31T08:28:17;12.90;99.90
46490;DHT22;32204;49.160;8.580;2023-10-31T08:30:42;13.00;1.00
46490;DHT22;32204;49.160;8.580;2023-10-31T08:33:08;13.10;1.00
46490;DHT22;32204;49.160;8.580;2023-10-31T08:35:33;13.20;99.90
46490;DHT22;32204;49.160;8.580;2023-10-31T08:37:59;13.30;1.00
46490;DHT22;32204;49.160;8.580;2023-10-31T08:40:25;13.40;1.00
46490;DHT22;32204;49.160;8.580;2023-10-31T08:42:50;13.40;99.90
46490;DHT22;32204;49.160;8.580;2023-10-31T08:45:16;13.40;99.90
46490;DHT22;32204;49.160;8.580;2023-10-31T08:47:41;13.40;99.90
46490;DHT22;32204;49.160;8.580;2023-10-31T08:50:07;13.20;1.00
46490;DHT22;32204;49.160;8.580;2023-10-31T08:52:36;13.20;99.90
46490;DHT22;32204;49.160;8.580;2023-10-31T08:55:02;13.20;99.90
46490;DHT22;32204;49.160;8.580;2023-10-31T08:57:28;13.20;60.60
46490;DHT22;32204;49.160;8.580;2023-10-31T08:59:54;13.30;39.80
46490;DHT22;32204;49.160;8.580;2023-10-31T09:02:19;13.40;1.00
46490;DHT22;32204;49.160;8.580;2023-10-31T09:04:45;13.50;99.90
46490;DHT22;32204;49.160;8.580;2023-10-31T09:07:10;13.40;1.00
46490;DHT22;32204;49.160;8.580;2023-10-31T09:09:35;13.50;45.90
46490;DHT22;32204;49.160;8.580;2023-10-31T09:12:01;13.50;99.90
46490;DHT22;32204;49.160;8.580;2023-10-31T09:14:26;13.50;99.90
46490;DHT22;32204;49.160;8.580;2023-10-31T09:16:52;13.60;99.90
46490;DHT22;32204;49.160;8.580;2023-10-31T09:19:17;13.60;99.90
46490;DHT22;32204;49.160;8.580;2023-10-31T09:21:43;13.60;14.40
46490;DHT22;32204;49.160;8.580;2023-10-31T09:24:08;13.50;1.00
46490;DHT22;32204;49.160;8.580;2023-10-31T09:26:34;13.50;99.90
46490;DHT22;32204;49.160;8.580;2023-10-31T09:29:00;13.60;1.00
46490;DHT22;32204;49.160;8.580;2023-10-31T09:31:25;13.70;99.90
46490;DHT22;32204;49.160;8.580;2023-10-31T09:33:51;13.70;1.00
46490;DHT22;32204;49.160;8.580;2023-10-31T09:36:16;13.70;1.00
46490;DHT22;32204;49.160;8.580;2023-10-31T09:38:42;13.80;99.90
46490;DHT22;32204;49.160;8.580;2023-10-31T09:41:07;13.70;1.00
46490;DHT22;32204;49.160;8.580;2023-10-31T09:43:33;13.70;72.20
46490;DHT22;32204;49.160;8.580;2023-10-31T09:45:58;13.80;97.90
46490;DHT22;32204;49.160;8.580;2023-10-31T09:48:26;13.80;1.00
46490;DHT22;32204;49.160;8.580;2023-10-31T09:50:52;13.80;1.00
46490;DHT22;32204;49.160;8.580;2023-10-31T09:53:18;13.80;1.00
46490;DHT22;32204;49.160;8.580;2023-10-31T09:55:45;13.70;1.00
46490;DHT22;32204;49.160;8.580;2023-10-31T09:58:11;13.80;57.70
46490;DHT22;32204;49.160;8.580;2023-10-31T10:00:36;13.60;1.00
46490;DHT22;32204;49.160;8.580;2023-10-31T10:03:08;13.50;1.00
46490;DHT22;32204;49.160;8.580;2023-10-31T10:05:34;13.40;99.90
46490;DHT22;32204;49.160;8.580;2023-10-31T10:08:00;13.40;99.90
46490;DHT22;32204;49.160;8.580;2023-10-31T10:10:25;13.50;99.90
46490;DHT22;32204;49.160;8.580;2023-10-31T10:12:51;13.60;1.00
46490;DHT22;32204;49.160;8.580;2023-10-31T10:15:17;13.60;99.90
46490;DHT22;32204;49.160;8.580;2023-10-31T10:17:48;13.70;1.00
46490;DHT22;32204;49.160;8.580;2023-10-31T10:20:13;13.70;1.00
46490;DHT22;32204;49.160;8.580;2023-10-31T10:22:40;13.70;99.90
46490;DHT22;32204;49.160;8.580;2023-10-31T10:25:06;13.80;99.90
46490;DHT22;32204;49.160;8.580;2023-10-31T10:27:32;13.80;99.90
46490;DHT22;32204;49.160;8.580;2023-10-31T10:29:57;13.90;1.00
46490;DHT22;32204;49.160;8.580;2023-10-31T10:32:23;13.90;99.90
46490;DHT22;32204;49.160;8.580;2023-10-31T10:34:48;14.00;99.90
46490;DHT22;32204;49.160;8.580;2023-10-31T10:37:14;14.00;99.90
46490;DHT22;32204;49.160;8.580;2023-10-31T10:39:40;14.00;72.20
46490;DHT22;32204;49.160;8.580;2023-10-31T10:42:09;14.00;99.90
46490;DHT22;32204;49.160;8.580;2023-10-31T10:44:37;14.00;99.90
46490;DHT22;32204;49.160;8.580;2023-10-31T10:47:05;14.10;99.90
46490;DHT22;32204;49.160;8.580;2023-10-31T10:49:32;14.10;99.90
46490;DHT22;32204;49.160;8.580;2023-10-31T10:51:58;14.10;99.90
46490;DHT22;32204;49.160;8.580;2023-10-31T10:54:32;14.10;99.90
46490;DHT22;32204;49.160;8.580;2023-10-31T10:59:52;14.10;1.00
46490;DHT22;32204;49.160;8.580;2023-10-31T11:02:19;14.10;99.90
46490;DHT22;32204;49.160;8.580;2023-10-31T11:04:45;14.20;99.90
46490;DHT22;32204;49.160;8.580;2023-10-31T11:07:10;14.30;1.00
46490;DHT22;32204;49.160;8.580;2023-10-31T11:09:37;14.30;99.90
46490;DHT22;32204;49.160;8.580;2023-10-31T11:12:03;14.30;1.00
46490;DHT22;32204;49.160;8.580;2023-10-31T11:14:29;14.30;7.80
46490;DHT22;32204;49.160;8.580;2023-10-31T11:16:57;14.50;1.00
46490;DHT22;32204;49.160;8.580;2023-10-31T11:19:25;14.50;1.00
46490;DHT22;32204;49.160;8.580;2023-10-31T11:21:58;14.50;99.90
46490;DHT22;32204;49.160;8.580;2023-10-31T11:24:28;14.60;99.90
46490;DHT22;32204;49.160;8.580;2023-10-31T11:26:54;14.60;1.00
46490;DHT22;32204;49.160;8.580;2023-10-31T11:29:23;14.60;54.60
46490;DHT22;32204;49.160;8.580;2023-10-31T11:31:48;14.70;99.90
46490;DHT22;32204;49.160;8.580;2023-10-31T11:34:15;14.60;99.90
46490;DHT22;32204;49.160;8.580;2023-10-31T11:36:41;14.50;1.00
46490;DHT22;32204;49.160;8.580;2023-10-31T11:39:10;14.50;1.00
46490;DHT22;32204;49.160;8.580;2023-10-31T11:41:37;14.50;1.00
46490;DHT22;32204;49.160;8.580;2023-10-31T11:44:03;14.70;1.00
46490;DHT22;32204;49.160;8.580;2023-10-31T11:46:29;14.70;99.90
46490;DHT22;32204;49.160;8.580;2023-10-31T11:48:55;14.80;99.90
46490;DHT22;32204;49.160;8.580;2023-10-31T11:51:25;14.70;99.90
46490;DHT22;32204;49.160;8.580;2023-10-31T11:53:51;14.80;99.90
46490;DHT22;32204;49.160;8.580;2023-10-31T11:56:16;15.00;99.90
46490;DHT22;32204;49.160;8.580;2023-10-31T11:58:42;15.10;1.00
46490;DHT22;32204;49.160;8.580;2023-10-31T12:01:08;15.10;99.90
46490;DHT22;32204;49.160;8.580;2023-10-31T12:06:03;15.00;99.90
46490;DHT22;32204;49.160;8.580;2023-10-31T12:08:30;15.10;99.90
46490;DHT22;32204;49.160;8.580;2023-10-31T12:11:08;15.30;99.90
46490;DHT22;32204;49.160;8.580;2023-10-31T12:13:35;15.50;99.90
46490;DHT22;32204;49.160;8.580;2023-10-31T12:16:00;15.40;1.00
46490;DHT22;32204;49.160;8.580;2023-10-31T12:18:27;15.50;1.00
46490;DHT22;32204;49.160;8.580;2023-10-31T12:20:52;15.60;1.00
46490;DHT22;32204;49.160;8.580;2023-10-31T12:23:18;15.70;99.90
46490;DHT22;32204;49.160;8.580;2023-10-31T12:25:47;15.50;1.00
46490;DHT22;32204;49.160;8.580;2023-10-31T12:28:16;15.40;1.00
46490;DHT22;32204;49.160;8.580;2023-10-31T12:30:45;15.30;1.00
46490;DHT22;32204;49.160;8.580;2023-10-31T12:33:11;15.30;1.00
46490;DHT22;32204;49.160;8.580;2023-10-31T12:35:36;15.20;38.90
46490;DHT22;32204;49.160;8.580;2023-10-31T12:38:02;15.00;74.20
46490;DHT22;32204;49.160;8.580;2023-10-31T12:40:27;15.00;99.90
46490;DHT22;32204;49.160;8.580;2023-10-31T12:42:53;14.90;99.90
46490;DHT22;32204;49.160;8.580;2023-10-31T12:45:19;14.80;99.90
46490;DHT22;32204;49.160;8.580;2023-10-31T12:47:44;14.70;99.90
46490;DHT22;32204;49.160;8.580;2023-10-31T12:50:13;14.70;1.00
46490;DHT22;32204;49.160;8.580;2023-10-31T12:52:46;14.70;1.00
46490;DHT22;32204;49.160;8.580;2023-10-31T12:55:12;14.70;11.40
46490;DHT22;32204;49.160;8.580;2023-10-31T12:57:38;14.70;1.00
46490;DHT22;32204;49.160;8.580;2023-10-31T13:00:04;14.60;99.90
46490;DHT22;32204;49.160;8.580;2023-10-31T13:02:31;14.60;99.90
46490;DHT22;32204;49.160;8.580;2023-10-31T13:05:07;14.50;99.90
46490;DHT22;32204;49.160;8.580;2023-10-31T13:07:33;14.50;99.90
46490;DHT22;32204;49.160;8.580;2023-10-31T13:09:59;14.50;1.00
46490;DHT22;32204;49.160;8.580;2023-10-31T13:12:24;14.50;99.90
46490;DHT22;32204;49.160;8.580;2023-10-31T13:14:52;14.60;99.90
46490;DHT22;32204;49.160;8.580;2023-10-31T13:17:17;14.70;99.90
46490;DHT22;32204;49.160;8.580;2023-10-31T13:19:43;14.70;99.90
46490;DHT22;32204;49.160;8.580;2023-10-31T13:22:08;14.80;99.90
46490;DHT22;32204;49.160;8.580;2023-10-31T13:24:34;14.80;99.90
46490;DHT22;32204;49.160;8.580;2023-10-31T13:26:59;14.70;99.90
46490;DHT22;32204;49.160;8.580;2023-10-31T13:29:28;14.70;1.00
46490;DHT22;32204;49.160;8.580;2023-10-31T13:31:53;14.70;99.90
46490;DHT22;32204;49.160;8.580;2023-10-31T13:34:19;14.50;99.90
46490;DHT22;32204;49.160;8.580;2023-10-31T13:36:44;14.50;99.90
46490;DHT22;32204;49.160;8.580;2023-10-31T13:39:10;14.40;99.90
46490;DHT22;32204;49.160;8.580;2023-10-31T13:41:35;14.30;1.00
46490;DHT22;32204;49.160;8.580;2023-10-31T13:44:01;14.30;99.90
46490;DHT22;32204;49.160;8.580;2023-10-31T13:46:28;14.30;99.90
46490;DHT22;32204;49.160;8.580;2023-10-31T13:48:54;14.30;99.90
46490;DHT22;32204;49.160;8.580;2023-10-31T13:51:20;14.50;99.90
46490;DHT22;32204;49.160;8.580;2023-10-31T13:53:45;14.50;99.90
46490;DHT22;32204;49.160;8.580;2023-10-31T13:56:11;14.70;99.90
46490;DHT22;32204;49.160;8.580;2023-10-31T13:58:36;14.70;1.00
46490;DHT22;32204;49.160;8.580;2023-10-31T14:01:02;14.70;99.90
46490;DHT22;32204;49.160;8.580;2023-10-31T14:03:27;14.80;1.00
46490;DHT22;32204;49.160;8.580;2023-10-31T14:05:53;14.80;1.00
46490;DHT22;32204;49.160;8.580;2023-10-31T14:08:18;14.80;99.90
46490;DHT22;32204;49.160;8.580;2023-10-31T14:10:44;14.90;1.00
46490;DHT22;32204;49.160;8.580;2023-10-31T14:13:11;14.80;1.00
46490;DHT22;32204;49.160;8.580;2023-10-31T14:15:36;14.70;75.20
46490;DHT22;32204;49.160;8.580;2023-10-31T14:18:03;14.60;99.90
46490;DHT22;32204;49.160;8.580;2023-10-31T14:20:29;14.60;99.90
46490;DHT22;32204;49.160;8.580;2023-10-31T14:22:54;14.50;1.00
46490;DHT22;32204;49.160;8.580;2023-10-31T14:25:20;14.50;99.90
46490;DHT22;32204;49.160;8.580;2023-10-31T14:27:45;14.50;99.90
46490;DHT22;32204;49.160;8.580;2023-10-31T14:30:12;14.30;99.90
46490;DHT22;32204;49.160;8.580;2023-10-31T14:32:38;14.30;21.10
46490;DHT22;32204;49.160;8.580;2023-10-31T14:35:04;14.30;99.90
46490;DHT22;32204;49.160;8.580;2023-10-31T14:37:29;14.30;99.90
46490;DHT22;32204;49.160;8.580;2023-10-31T14:39:55;14.30;99.90
46490;DHT22;32204;49.160;8.580;2023-10-31T14:42:21;14.20;36.00
46490;DHT22;32204;49.160;8.580;2023-10-31T14:44:46;14.10;99.90
46490;DHT22;32204;49.160;8.580;2023-10-31T14:47:12;14.00;99.90
46490;DHT22;32204;49.160;8.580;2023-10-31T14:49:38;14.00;1.00
46490;DHT22;32204;49.160;8.580;2023-10-31T14:52:04;14.00;99.90
46490;DHT22;32204;49.160;8.580;2023-10-31T14:54:31;14.00;99.90
46490;DHT22;32204;49.160;8.580;2023-10-31T14:56:57;13.90;99.90
46490;DHT22;32204;49.160;8.580;2023-10-31T14:59:22;13.90;99.90
46490;DHT22;32204;49.160;8.580;2023-10-31T15:01:48;14.00;99.90
46490;DHT22;32204;49.160;8.580;2023-10-31T15:04:14;13.90;1.00
46490;DHT22;32204;49.160;8.580;2023-10-31T15:06:41;13.90;99.90
46490;DHT22;32204;49.160;8.580;2023-10-31T15:09:07;13.90;6.50
46490;DHT22;32204;49.160;8.580;2023-10-31T15:11:32;13.80;1.00
46490;DHT22;32204;49.160;8.580;2023-10-31T15:13:58;13.70;99.90
46490;DHT22;32204;49.160;8.580;2023-10-31T15:16:23;13.70;99.90
46490;DHT22;32204;49.160;8.580;2023-10-31T15:18:49;13.70;99.90
46490;DHT22;32204;49.160;8.580;2023-10-31T15:21:14;13.60;1.00
46490;DHT22;32204;49.160;8.580;2023-10-31T15:23:40;13.60;99.90
46490;DHT22;32204;49.160;8.580;2023-10-31T15:26:05;13.60;99.90
46490;DHT22;32204;49.160;8.580;2023-10-31T15:28:34;13.60;99.90
46490;DHT22;32204;49.160;8.580;2023-10-31T15:31:01;13.70;99.90